createdAt,value
2023-03-07T00:00:46.325Z,51.30
2023-03-07T00:03:17.023Z,55.23
2023-03-07T00:05:44.432Z,45.43
2023-03-07T00:08:11.745Z,51.93
2023-03-07T00:10:38.565Z,43.77
2023-03-07T00:13:05.249Z,50.07
2023-03-07T00:15:35.324Z,43.40
2023-03-07T00:18:10.077Z,50.37
2023-03-07T00:20:36.950Z,41.20
2023-03-07T00:23:05.167Z,50.00
2023-03-07T00:25:37.177Z,47.17
2023-03-07T00:28:07.497Z,48.87
2023-03-07T00:30:34.132Z,45.13
2023-03-07T00:33:00.859Z,45.67
2023-03-07T00:35:27.639Z,51.33
2023-03-07T00:37:54.415Z,48.73
2023-03-07T00:40:21.306Z,47.77
2023-03-07T00:42:48.176Z,46.23
2023-03-07T00:45:15.018Z,45.43
2023-03-07T00:47:41.673Z,45.40
2023-03-07T00:50:08.758Z,45.40
2023-03-07T00:52:35.487Z,45.63
2023-03-07T00:55:02.284Z,44.00
2023-03-07T00:57:31.071Z,42.50
2023-03-07T00:59:57.886Z,39.53
2023-03-07T01:02:24.730Z,43.33
2023-03-07T01:04:51.472Z,41.30
2023-03-07T01:07:18.125Z,40.10
2023-03-07T01:09:47.595Z,40.03
2023-03-07T01:12:14.479Z,41.90
2023-03-07T01:14:41.309Z,42.17
2023-03-07T01:17:08.220Z,40.43
2023-03-07T01:19:35.104Z,41.30
2023-03-07T01:22:02.940Z,33.90
2023-03-07T01:24:39.243Z,38.37
2023-03-07T01:27:17.011Z,35.53
2023-03-07T01:29:56.423Z,39.07
2023-03-07T01:32:33.329Z,30.93
2023-03-07T01:35:15.991Z,37.57
2023-03-07T01:37:52.114Z,37.27
2023-03-07T01:40:26.036Z,34.73
2023-03-07T01:43:18.699Z,23.53
2023-03-07T01:46:52.210Z,35.53
2023-03-07T01:49:45.369Z,34.13
2023-03-07T01:52:22.057Z,33.90
2023-03-07T01:54:52.708Z,28.27
2023-03-07T01:57:23.710Z,28.87
2023-03-07T01:59:54.735Z,30.70
2023-03-07T02:02:23.204Z,31.50
2023-03-07T02:05:00.164Z,30.43
2023-03-07T02:07:33.469Z,27.90
2023-03-07T02:10:01.005Z,29.47
2023-03-07T02:12:28.219Z,27.67
2023-03-07T02:14:55.409Z,23.50
2023-03-07T02:17:24.797Z,24.07
2023-03-07T02:24:12.881Z,22.83
2023-03-07T02:27:02.003Z,20.20
2023-03-07T02:38:44.893Z,19.50
2023-03-07T02:41:13.927Z,14.57
2023-03-07T02:43:40.752Z,18.80
2023-03-07T02:46:07.888Z,18.60
2023-03-07T02:48:34.969Z,19.43
2023-03-07T02:51:01.700Z,20.60
2023-03-07T02:53:28.482Z,18.90
2023-03-07T02:55:55.894Z,14.47
2023-03-07T02:58:23.180Z,19.33
2023-03-07T03:00:50.075Z,17.90
2023-03-07T03:03:17.180Z,17.57
2023-03-07T03:05:44.027Z,14.27
2023-03-07T03:08:10.774Z,11.87
2023-03-07T03:10:37.439Z,12.70
2023-03-07T03:13:15.799Z,9.13
2023-03-07T03:15:42.429Z,11.97
2023-03-07T03:18:09.065Z,15.53
2023-03-07T03:20:38.879Z,10.30
2023-03-07T03:23:06.125Z,13.03
2023-03-07T03:25:33.176Z,16.60
2023-03-07T03:27:59.945Z,9.30
2023-03-07T03:30:28.208Z,10.90
2023-03-07T03:32:56.365Z,9.90
2023-03-07T03:35:23.259Z,10.57
2023-03-07T03:37:50.276Z,9.53
2023-03-07T03:40:17.657Z,8.03
2023-03-07T03:42:45.591Z,10.23
2023-03-07T03:45:15.043Z,9.60
2023-03-07T03:47:42.139Z,9.13
2023-03-07T03:50:21.814Z,9.03
2023-03-07T03:52:53.813Z,5.77
2023-03-07T03:55:20.872Z,7.63
2023-03-07T03:58:12.013Z,10.03
2023-03-07T04:03:52.123Z,5.53
2023-03-07T04:06:39.311Z,7.47
2023-03-07T04:09:17.760Z,9.33
2023-03-07T04:11:44.366Z,5.33
2023-03-07T04:14:11.265Z,10.27
2023-03-07T04:16:38.128Z,7.43
2023-03-07T04:19:04.741Z,4.70
2023-03-07T04:21:31.628Z,4.97
2023-03-07T04:23:58.422Z,9.23
2023-03-07T04:26:25.264Z,4.33
2023-03-07T04:28:51.969Z,5.90
2023-03-07T04:31:24.260Z,6.73
2023-03-07T04:33:52.154Z,5.73
2023-03-07T04:36:19.738Z,6.37
2023-03-07T04:38:47.606Z,7.93
2023-03-07T04:41:17.210Z,4.97
2023-03-07T04:43:44.069Z,5.47
2023-03-07T04:46:13.317Z,5.37
2023-03-07T04:48:40.072Z,6.90
2023-03-07T04:51:06.683Z,3.17
2023-03-07T04:53:33.525Z,4.90
2023-03-07T04:56:06.265Z,4.07
2023-03-07T04:58:33.767Z,2.23
2023-03-07T05:01:01.984Z,6.53
2023-03-07T05:03:28.686Z,6.13
2023-03-07T05:05:55.597Z,6.43
2023-03-07T05:08:23.071Z,7.47
2023-03-07T05:10:49.940Z,6.67
2023-03-07T05:13:16.535Z,6.07
2023-03-07T05:15:43.623Z,5.90
2023-03-07T05:18:10.199Z,9.20
2023-03-07T05:20:36.847Z,8.33
2023-03-07T05:23:03.481Z,5.00
2023-03-07T05:25:30.070Z,5.33
2023-03-07T05:27:56.912Z,6.93
2023-03-07T05:30:23.514Z,5.50
2023-03-07T05:32:51.466Z,5.17
2023-03-07T05:35:19.037Z,6.47
2023-03-07T05:37:46.297Z,5.93
2023-03-07T05:40:14.038Z,6.10
2023-03-07T05:42:46.834Z,7.33
2023-03-07T05:45:13.537Z,2.87
2023-03-07T05:47:40.267Z,6.17
2023-03-07T05:50:07.819Z,6.80
2023-03-07T05:52:34.659Z,6.73
2023-03-07T05:55:01.428Z,4.60
2023-03-07T05:57:31.308Z,6.10
2023-03-07T05:59:57.950Z,4.90
2023-03-07T06:02:24.711Z,9.03
2023-03-07T06:04:51.330Z,5.10
2023-03-07T06:07:17.950Z,9.03
2023-03-07T06:09:44.666Z,8.63
2023-03-07T06:12:11.486Z,5.43
2023-03-07T06:14:38.272Z,4.80
2023-03-07T06:17:05.630Z,3.50
2023-03-07T06:19:32.585Z,5.67
2023-03-07T06:21:59.223Z,9.33
2023-03-07T06:24:25.761Z,4.53
2023-03-07T06:26:52.371Z,4.50
2023-03-07T06:29:18.938Z,4.87
2023-03-07T06:31:45.609Z,4.33
2023-03-07T06:34:12.781Z,5.60
2023-03-07T06:36:40.326Z,2.77
2023-03-07T06:39:07.609Z,6.87
2023-03-07T06:41:34.981Z,6.40
2023-03-07T06:44:01.719Z,4.57
2023-03-07T06:46:28.763Z,3.90
2023-03-07T06:48:55.849Z,4.60
2023-03-07T06:51:22.884Z,6.43
2023-03-07T06:53:49.704Z,7.47
2023-03-07T06:56:17.062Z,7.53
2023-03-07T06:58:43.808Z,5.33
2023-03-07T07:01:19.231Z,10.23
2023-03-07T07:03:46.132Z,7.17
2023-03-07T07:06:13.181Z,5.43
2023-03-07T07:08:40.107Z,7.37
2023-03-07T07:11:07.041Z,8.47
2023-03-07T07:13:48.013Z,8.20
2023-03-07T07:16:14.770Z,6.03
2023-03-07T07:18:41.534Z,5.03
2023-03-07T07:21:08.843Z,7.93
2023-03-07T07:23:35.713Z,5.53
2023-03-07T07:26:03.007Z,5.63
2023-03-07T07:28:29.890Z,6.90
2023-03-07T07:30:56.616Z,10.20
2023-03-07T07:33:23.350Z,6.80
2023-03-07T07:35:50.634Z,5.40
2023-03-07T07:38:17.310Z,4.00
2023-03-07T07:40:45.120Z,5.70
2023-03-07T07:43:16.193Z,5.57
2023-03-07T07:45:43.020Z,4.37
2023-03-07T07:48:09.777Z,5.67
2023-03-07T07:50:37.362Z,6.40
2023-03-07T07:53:04.129Z,5.03
2023-03-07T07:55:30.837Z,3.63
2023-03-07T07:57:57.554Z,5.20
2023-03-07T08:00:27.410Z,6.20
2023-03-07T08:03:13.005Z,4.40
2023-03-07T08:05:45.214Z,5.23
2023-03-07T08:08:27.530Z,6.20
2023-03-07T08:10:54.258Z,2.33
2023-03-07T08:13:21.176Z,5.53
2023-03-07T08:15:48.058Z,4.20
2023-03-07T08:19:00.660Z,6.07
2023-03-07T08:21:28.127Z,2.93
2023-03-07T08:23:56.143Z,3.67
2023-03-07T08:26:23.497Z,2.10
2023-03-07T08:28:55.938Z,5.10
2023-03-07T08:31:24.623Z,4.50
2023-03-07T08:33:53.885Z,4.57
2023-03-07T08:36:20.969Z,4.47
2023-03-07T08:38:52.096Z,5.07
2023-03-07T08:41:20.625Z,1.47
2023-03-07T08:43:47.870Z,6.07
2023-03-07T08:46:14.978Z,7.07
2023-03-07T08:48:41.828Z,5.17
2023-03-07T08:51:11.381Z,4.50
2023-03-07T08:53:38.858Z,3.77
2023-03-07T08:56:09.920Z,6.90
2023-03-07T08:58:37.501Z,4.27
2023-03-07T09:01:05.664Z,7.73
2023-03-07T09:03:32.840Z,3.50
2023-03-07T09:06:00.169Z,4.23
2023-03-07T09:08:27.206Z,6.07
2023-03-07T09:10:54.607Z,3.67
2023-03-07T09:13:21.400Z,5.63
2023-03-07T09:15:54.126Z,3.23
2023-03-07T09:18:22.900Z,5.53
2023-03-07T09:20:49.551Z,6.73
2023-03-07T09:23:19.220Z,3.50
2023-03-07T09:25:45.892Z,5.17
2023-03-07T09:28:12.563Z,4.40
2023-03-07T09:30:39.354Z,6.07
2023-03-07T09:33:06.036Z,5.70
2023-03-07T09:35:32.765Z,3.27
2023-03-07T09:37:59.924Z,7.03
2023-03-07T09:40:27.866Z,8.93
2023-03-07T09:43:02.394Z,3.40
2023-03-07T09:45:39.289Z,5.27
2023-03-07T09:48:51.062Z,6.15
2023-03-07T09:51:38.185Z,2.83
2023-03-07T09:54:31.756Z,2.13
2023-03-07T09:57:00.105Z,1.60
2023-03-07T09:59:34.904Z,6.07
2023-03-07T10:02:14.663Z,5.53
2023-03-07T10:04:52.537Z,3.28
2023-03-07T10:07:23.446Z,4.07
2023-03-07T10:09:57.323Z,3.05
2023-03-07T10:12:54.356Z,8.48
2023-03-07T10:15:45.731Z,4.22
2023-03-07T10:18:26.181Z,3.22
2023-03-07T10:21:12.755Z,4.37
2023-03-07T10:24:11.396Z,6.00
2023-03-07T10:26:58.551Z,2.63
2023-03-07T10:29:30.796Z,4.67
2023-03-07T10:32:18.644Z,6.37
2023-03-07T10:34:46.786Z,4.67
2023-03-07T10:37:16.071Z,3.17
2023-03-07T10:39:52.120Z,3.47
2023-03-07T10:42:24.733Z,4.77
2023-03-07T10:44:52.269Z,6.33
2023-03-07T10:47:26.883Z,7.37
2023-03-07T10:50:00.523Z,6.50
2023-03-07T10:52:46.627Z,2.77
2023-03-07T10:55:44.949Z,3.72
2023-03-07T10:58:12.438Z,2.37
2023-03-07T11:00:39.194Z,1.75
2023-03-07T11:03:25.375Z,4.97
2023-03-07T11:05:52.048Z,6.83
2023-03-07T11:08:33.390Z,6.03
2023-03-07T11:11:02.473Z,3.07
2023-03-07T11:13:29.615Z,3.27
2023-03-07T11:16:21.313Z,4.03
2023-03-07T11:18:48.415Z,3.40
2023-03-07T11:21:33.516Z,3.87
2023-03-07T11:24:20.310Z,9.17
2023-03-07T11:26:46.932Z,6.47
2023-03-07T11:29:14.695Z,4.40
2023-03-07T11:31:51.521Z,4.95
2023-03-07T11:34:39.601Z,4.65
2023-03-07T11:37:26.087Z,4.32
2023-03-07T11:40:08.475Z,7.93
2023-03-07T11:42:43.820Z,7.72
2023-03-07T11:45:34.447Z,13.15
2023-03-07T11:48:16.053Z,6.72
2023-03-07T11:50:49.421Z,5.75
2023-03-07T11:53:38.086Z,10.82
2023-03-07T11:56:34.084Z,10.25
2023-03-07T11:59:31.516Z,4.47
2023-03-07T12:02:02.183Z,5.25
2023-03-07T12:04:59.276Z,5.55
2023-03-07T12:07:51.112Z,5.93
2023-03-07T12:10:36.561Z,5.25
2023-03-07T12:13:30.619Z,5.93
2023-03-07T12:16:20.582Z,5.18
2023-03-07T12:18:56.752Z,5.78
2023-03-07T12:21:42.855Z,3.15
2023-03-07T12:24:21.274Z,5.10
2023-03-07T12:26:59.640Z,5.28
2023-03-07T12:29:43.077Z,4.20
2023-03-07T12:32:18.225Z,3.78
2023-03-07T12:34:55.748Z,3.17
2023-03-07T12:37:28.001Z,4.50
2023-03-07T12:40:35.406Z,3.97
2023-03-07T12:43:26.926Z,3.67
2023-03-07T12:46:09.043Z,4.95
2023-03-07T12:48:41.220Z,1.55
2023-03-07T12:51:19.439Z,2.35
2023-03-07T12:53:58.992Z,3.83
2023-03-07T12:56:54.013Z,2.45
2023-03-07T12:59:21.877Z,3.35
2023-03-07T13:01:53.869Z,2.30
2023-03-07T13:04:38.873Z,3.22
2023-03-07T13:07:18.488Z,2.95
2023-03-07T13:09:47.945Z,5.07
2023-03-07T13:12:20.144Z,4.18
2023-03-07T13:15:01.907Z,4.70
2023-03-07T13:17:31.670Z,9.40
2023-03-07T13:20:02.044Z,8.88
2023-03-07T13:25:28.049Z,5.50
2023-03-07T13:28:40.974Z,7.32
2023-03-07T13:31:42.371Z,3.58
2023-03-07T13:39:37.248Z,3.25
2023-03-07T13:42:06.630Z,5.15
2023-03-07T13:44:40.934Z,5.15
2023-03-07T13:47:43.100Z,3.38
2023-03-07T13:50:59.078Z,2.92
2023-03-07T13:53:31.677Z,2.65
2023-03-07T13:56:07.392Z,3.55
2023-03-07T13:58:39.954Z,4.97
2023-03-07T14:01:17.201Z,2.58
2023-03-07T14:03:59.153Z,2.35
2023-03-07T14:06:40.901Z,2.35
2023-03-07T14:09:14.704Z,1.10
2023-03-07T14:13:06.094Z,5.82
2023-03-07T14:15:50.484Z,6.40
2023-03-07T14:18:31.235Z,2.33
2023-03-07T14:21:07.041Z,2.90
2023-03-07T14:23:54.214Z,3.72
2023-03-07T14:26:37.015Z,3.35
2023-03-07T14:29:22.201Z,5.57
2023-03-07T14:31:53.411Z,5.53
2023-03-07T14:34:35.919Z,2.08
2023-03-07T14:37:12.186Z,3.80
2023-03-07T14:40:03.435Z,6.30
2023-03-07T14:42:51.651Z,6.07
2023-03-07T14:45:41.923Z,2.58
2023-03-07T14:48:47.404Z,3.80
2023-03-07T14:51:21.848Z,2.40
2023-03-07T14:53:49.746Z,3.63
2023-03-07T14:56:23.632Z,1.90
2023-03-07T14:58:58.097Z,2.72
2023-03-07T15:01:32.015Z,3.85
2023-03-07T15:03:58.999Z,2.42
2023-03-07T15:06:28.950Z,2.92
2023-03-07T15:08:57.602Z,2.15
2023-03-07T15:11:51.948Z,1.23
2023-03-07T15:14:30.324Z,2.45
2023-03-07T15:17:04.308Z,3.75
2023-03-07T15:19:43.464Z,2.70
2023-03-07T15:24:47.607Z,1.67
2023-03-07T15:27:18.675Z,1.55
2023-03-07T15:29:46.854Z,3.60
2023-03-07T15:32:37.061Z,6.90
2023-03-07T15:35:10.988Z,5.78
2023-03-07T15:37:58.717Z,5.20
2023-03-07T15:40:35.201Z,5.88
2023-03-07T15:43:05.150Z,17.73
2023-03-07T15:45:40.442Z,11.35
2023-03-07T15:48:44.910Z,3.45
2023-03-07T15:51:20.374Z,2.40
2023-03-07T15:54:28.182Z,2.88
2023-03-07T15:56:59.400Z,6.73
2023-03-07T15:59:36.377Z,3.83
2023-03-07T16:02:43.118Z,2.35
2023-03-07T16:05:24.078Z,3.30
2023-03-07T16:07:53.896Z,3.70
2023-03-07T16:10:24.385Z,2.40
2023-03-07T16:12:51.149Z,3.57
2023-03-07T16:15:23.035Z,1.93
2023-03-07T16:17:54.118Z,2.57
2023-03-07T16:20:26.636Z,2.67
2023-03-07T16:22:54.308Z,4.43
2023-03-07T16:25:22.888Z,1.30
2023-03-07T16:27:56.646Z,2.23
2023-03-07T16:30:25.638Z,2.80
2023-03-07T16:32:52.362Z,2.93
2023-03-07T16:35:24.480Z,1.03
2023-03-07T16:37:52.211Z,3.67
2023-03-07T16:40:20.313Z,3.37
2023-03-07T16:42:50.380Z,4.60
2023-03-07T16:45:31.817Z,2.23
2023-03-07T16:48:02.130Z,1.90
2023-03-07T16:50:31.814Z,5.80
2023-03-07T16:52:58.574Z,5.00
2023-03-07T16:55:26.132Z,2.07
2023-03-07T16:58:00.432Z,2.10
2023-03-07T17:00:28.201Z,1.33
2023-03-07T17:02:58.309Z,4.17
2023-03-07T17:05:27.222Z,3.73
2023-03-07T17:07:59.100Z,3.17
2023-03-07T17:10:27.185Z,3.70
2023-03-07T17:12:56.555Z,2.70
2023-03-07T17:15:30.312Z,2.80
2023-03-07T17:17:58.906Z,5.13
2023-03-07T17:20:26.169Z,2.40
2023-03-07T17:22:53.881Z,3.37
2023-03-07T17:25:21.300Z,2.67
2023-03-07T17:28:06.439Z,2.53
2023-03-07T17:30:33.473Z,4.40
2023-03-07T17:33:01.140Z,1.80
2023-03-07T17:35:28.652Z,3.27
2023-03-07T17:37:55.563Z,3.20
2023-03-07T17:40:22.637Z,10.30
2023-03-07T17:42:51.419Z,6.80
2023-03-07T17:45:18.420Z,9.53
2023-03-07T17:47:45.254Z,17.20
2023-03-07T17:50:12.248Z,12.33
2023-03-07T17:52:39.237Z,6.20
2023-03-07T17:55:09.592Z,2.33
2023-03-07T17:57:36.581Z,1.60
2023-03-07T18:00:13.870Z,3.13
2023-03-07T18:02:45.992Z,2.97
2023-03-07T18:05:13.375Z,4.63
2023-03-07T18:07:43.368Z,2.90
2023-03-07T18:10:11.802Z,4.43
2023-03-07T18:12:39.472Z,7.27
2023-03-07T18:15:17.809Z,9.33
2023-03-07T18:17:48.743Z,5.20
2023-03-07T18:20:18.220Z,8.03
2023-03-07T18:22:44.998Z,5.77
2023-03-07T18:25:13.946Z,6.10
2023-03-07T18:27:40.946Z,3.80
2023-03-07T18:30:09.013Z,2.73
2023-03-07T18:32:35.966Z,5.10
2023-03-07T18:35:03.678Z,3.57
2023-03-07T18:37:32.254Z,4.13
2023-03-07T18:39:59.003Z,4.57
2023-03-07T18:42:25.763Z,4.83
2023-03-07T18:44:52.917Z,6.00
2023-03-07T18:47:19.588Z,4.13
2023-03-07T18:49:51.277Z,3.57
2023-03-07T18:52:18.817Z,3.30
2023-03-07T18:54:45.611Z,4.27
2023-03-07T18:57:12.444Z,6.47
2023-03-07T18:59:39.392Z,4.27
2023-03-07T19:02:06.232Z,2.70
2023-03-07T19:04:33.137Z,2.30
2023-03-07T19:07:00.693Z,5.90
2023-03-07T19:09:27.772Z,4.23
2023-03-07T19:11:54.608Z,5.13
2023-03-07T19:14:21.476Z,4.07
2023-03-07T19:16:48.496Z,4.53
2023-03-07T19:19:16.172Z,7.30
2023-03-07T19:21:42.996Z,5.33
2023-03-07T19:29:21.510Z,7.70
2023-03-07T19:31:48.545Z,6.53
2023-03-07T19:34:15.796Z,3.13
2023-03-07T19:36:42.730Z,7.83
2023-03-07T19:39:14.641Z,5.30
2023-03-07T19:41:42.630Z,5.07
2023-03-07T19:44:12.148Z,6.97
2023-03-07T19:46:38.906Z,4.43
2023-03-07T19:49:05.598Z,9.70
2023-03-07T19:51:32.508Z,7.07
2023-03-07T19:53:59.378Z,8.00
2023-03-07T19:56:31.795Z,3.73
2023-03-07T19:59:17.880Z,6.10
2023-03-07T20:01:56.795Z,4.67
2023-03-07T20:04:38.275Z,3.10
2023-03-07T20:07:05.381Z,10.40
2023-03-07T20:09:32.092Z,6.67
2023-03-07T20:11:58.963Z,5.47
2023-03-07T20:14:25.710Z,4.03
2023-03-07T20:16:52.510Z,4.10
2023-03-07T20:19:20.695Z,5.30
2023-03-07T20:21:50.026Z,5.47
2023-03-07T20:24:19.952Z,5.80
2023-03-07T20:26:47.986Z,6.47
2023-03-07T20:29:14.710Z,5.53
2023-03-07T20:31:41.451Z,3.70
2023-03-07T20:34:08.302Z,4.37
2023-03-07T20:36:37.738Z,5.17
2023-03-07T20:39:11.838Z,8.10
2023-03-07T20:41:38.651Z,40.37
2023-03-07T20:44:08.024Z,21.47
2023-03-07T20:46:35.780Z,9.07
2023-03-07T20:49:02.617Z,4.07
2023-03-07T20:51:32.311Z,11.10
2023-03-07T20:54:03.600Z,5.33
2023-03-07T20:56:32.727Z,3.00
2023-03-07T20:59:00.136Z,3.20
2023-03-07T21:01:29.404Z,4.87
2023-03-07T21:03:56.437Z,4.87
2023-03-07T21:06:23.304Z,3.30
2023-03-07T21:08:50.034Z,4.23
2023-03-07T21:11:19.765Z,4.80
2023-03-07T21:19:01.604Z,5.93
2023-03-07T21:21:29.543Z,5.70
2023-03-07T21:23:57.070Z,3.37
2023-03-07T21:26:26.570Z,4.50
2023-03-07T21:28:53.652Z,5.63
2023-03-07T21:31:22.721Z,4.27
2023-03-07T21:33:53.844Z,9.17
2023-03-07T21:36:24.170Z,5.70
2023-03-07T21:38:51.301Z,4.60
2023-03-07T21:41:19.343Z,4.43
2023-03-07T21:43:45.966Z,7.17
2023-03-07T21:46:14.125Z,3.73
2023-03-07T21:48:41.833Z,6.13
2023-03-07T21:51:08.796Z,4.83
2023-03-07T21:53:35.784Z,4.33
2023-03-07T21:56:11.423Z,5.23
2023-03-07T21:58:39.304Z,4.13
2023-03-07T22:01:21.404Z,4.50
2023-03-07T22:03:48.105Z,6.00
2023-03-07T22:06:16.518Z,2.00
2023-03-07T22:08:43.177Z,5.37
2023-03-07T22:11:11.929Z,3.37
2023-03-07T22:13:40.238Z,3.67
2023-03-07T22:16:11.395Z,3.83
2023-03-07T22:18:38.231Z,3.23
2023-03-07T22:21:17.205Z,2.37
2023-03-07T22:23:44.080Z,2.80
2023-03-07T22:26:11.861Z,4.63
2023-03-07T22:28:40.894Z,4.97
2023-03-07T22:31:10.276Z,4.10
2023-03-07T22:33:38.261Z,3.17
2023-03-07T22:36:07.217Z,2.53
2023-03-07T22:38:34.788Z,2.93
2023-03-07T22:41:03.770Z,3.77
2023-03-07T22:43:32.340Z,5.00
2023-03-07T22:45:59.190Z,3.60
2023-03-07T22:48:26.476Z,3.00
2023-03-07T22:50:53.363Z,6.63
2023-03-07T22:53:20.087Z,3.80
2023-03-07T22:55:46.823Z,4.67
2023-03-07T22:58:14.178Z,4.67
2023-03-07T23:00:42.528Z,5.90
2023-03-07T23:03:09.573Z,7.60
2023-03-07T23:05:37.253Z,3.97
2023-03-07T23:08:04.946Z,5.63
2023-03-07T23:10:35.094Z,3.67
2023-03-07T23:13:01.694Z,5.37
2023-03-07T23:15:28.697Z,5.87
2023-03-07T23:17:56.031Z,3.63
2023-03-07T23:20:25.659Z,4.77
2023-03-07T23:22:52.837Z,3.47
2023-03-07T23:25:20.593Z,3.53
2023-03-07T23:27:47.915Z,4.37
2023-03-07T23:30:14.981Z,4.80
2023-03-07T23:32:41.688Z,4.97
2023-03-07T23:35:09.244Z,4.40
2023-03-07T23:37:35.796Z,6.50
2023-03-07T23:40:02.672Z,3.97
2023-03-07T23:42:29.358Z,3.30
2023-03-07T23:44:56.208Z,3.80
2023-03-07T23:47:22.807Z,2.93
2023-03-07T23:49:49.326Z,5.17
2023-03-07T23:52:15.883Z,4.10
2023-03-07T23:54:45.194Z,5.47
2023-03-07T23:57:12.607Z,3.73
2023-03-07T23:59:39.445Z,4.17
